sensor_id;sensor_type;location;lat;lon;timestamp;pressure;altitude;pressure_sealevel;temperature;humidity
39773;BME280;25451;51.960;6.250;2022-07-29T00:02:08;101594.66;;;19.13;49.03
39773;BME280;25451;51.960;6.250;2022-07-29T00:04:37;101578.72;;;19.03;49.05
39773;BME280;25451;51.960;6.250;2022-07-29T00:07:03;101590.44;;;19.10;49.20
39773;BME280;25451;51.960;6.250;2022-07-29T00:09:28;101598.84;;;19.10;49.32
39773;BME280;25451;51.960;6.250;2022-07-29T00:11:56;101597.19;;;19.09;49.34
39773;BME280;25451;51.960;6.250;2022-07-29T00:14:23;101597.19;;;19.09;49.16
39773;BME280;25451;51.960;6.250;2022-07-29T00:16:48;101586.28;;;19.08;49.37
39773;BME280;25451;51.960;6.250;2022-07-29T00:19:14;101587.66;;;19.10;49.46
39773;BME280;25451;51.960;6.250;2022-07-29T00:21:39;101583.19;;;19.09;49.42
39773;BME280;25451;51.960;6.250;2022-07-29T00:24:04;101581.25;;;19.04;49.61
39773;BME280;25451;51.960;6.250;2022-07-29T00:26:30;101577.59;;;19.04;49.72
39773;BME280;25451;51.960;6.250;2022-07-29T00:29:00;101578.16;;;18.96;49.88
39773;BME280;25451;51.960;6.250;2022-07-29T00:31:26;101565.88;;;18.97;49.75
39773;BME280;25451;51.960;6.250;2022-07-29T00:33:52;101568.97;;;18.95;50.10
39773;BME280;25451;51.960;6.250;2022-07-29T00:36:17;101559.72;;;18.90;50.08
39773;BME280;25451;51.960;6.250;2022-07-29T00:38:42;101557.47;;;18.82;50.09
39773;BME280;25451;51.960;6.250;2022-07-29T00:41:11;101565.88;;;18.87;50.26
39773;BME280;25451;51.960;6.250;2022-07-29T00:43:36;101557.47;;;18.82;50.54
39773;BME280;25451;51.960;6.250;2022-07-29T00:46:01;101558.63;;;18.76;50.77
39773;BME280;25451;51.960;6.250;2022-07-29T00:48:26;101556.94;;;18.75;50.78
39773;BME280;25451;51.960;6.250;2022-07-29T00:50:52;101556.94;;;18.70;50.97
39773;BME280;25451;51.960;6.250;2022-07-29T00:53:19;101554.16;;;18.65;50.80
39773;BME280;25451;51.960;6.250;2022-07-29T00:55:45;101564.22;;;18.71;50.89
39773;BME280;25451;51.960;6.250;2022-07-29T00:58:12;101552.47;;;18.69;51.10
39773;BME280;25451;51.960;6.250;2022-07-29T01:00:38;101553.59;;;18.68;51.23
39773;BME280;25451;51.960;6.250;2022-07-29T01:03:05;101550.53;;;18.64;50.98
39773;BME280;25451;51.960;6.250;2022-07-29T01:05:31;101549.69;;;18.64;50.96
39773;BME280;25451;51.960;6.250;2022-07-29T01:07:57;101534.56;;;18.60;51.28
39773;BME280;25451;51.960;6.250;2022-07-29T01:10:23;101536.81;;;18.63;51.28
39773;BME280;25451;51.960;6.250;2022-07-29T01:12:50;101533.47;;;18.61;51.17
39773;BME280;25451;51.960;6.250;2022-07-29T01:15:16;101539.63;;;18.63;51.23
39773;BME280;25451;51.960;6.250;2022-07-29T01:26:31;101524.78;;;18.57;51.44
39773;BME280;25451;51.960;6.250;2022-07-29T01:31:57;101523.66;;;18.53;51.54
39773;BME280;25451;51.960;6.250;2022-07-29T01:34:29;101506.06;;;18.48;51.51
39773;BME280;25451;51.960;6.250;2022-07-29T01:39:38;101514.41;;;18.43;51.78
39773;BME280;25451;51.960;6.250;2022-07-29T01:42:14;101508.81;;;18.43;51.88
39773;BME280;25451;51.960;6.250;2022-07-29T01:45:08;101523.97;;;18.47;51.85
39773;BME280;25451;51.960;6.250;2022-07-29T01:47:40;101511.91;;;18.41;52.01
39773;BME280;25451;51.960;6.250;2022-07-29T01:50:08;101522.56;;;18.44;52.06
39773;BME280;25451;51.960;6.250;2022-07-29T01:52:49;101519.78;;;18.44;52.18
39773;BME280;25451;51.960;6.250;2022-07-29T01:55:20;101518.09;;;18.43;51.89
39773;BME280;25451;51.960;6.250;2022-07-29T01:57:48;101523.38;;;18.45;52.02
39773;BME280;25451;51.960;6.250;2022-07-29T02:00:14;101519.50;;;18.46;52.06
39773;BME280;25451;51.960;6.250;2022-07-29T02:02:43;101507.47;;;18.45;52.07
39773;BME280;25451;51.960;6.250;2022-07-29T02:05:12;101517.78;;;18.45;52.06
39773;BME280;25451;51.960;6.250;2022-07-29T02:07:40;101492.34;;;18.36;51.98
39773;BME280;25451;51.960;6.250;2022-07-29T02:10:07;101518.66;;;18.45;52.31
39773;BME280;25451;51.960;6.250;2022-07-29T02:12:34;101518.34;;;18.42;52.40
39773;BME280;25451;51.960;6.250;2022-07-29T02:15:03;101516.66;;;18.41;52.52
39773;BME280;25451;51.960;6.250;2022-07-29T02:17:39;101529.25;;;18.38;52.42
39773;BME280;25451;51.960;6.250;2022-07-29T02:20:05;101538.50;;;18.44;52.32
39773;BME280;25451;51.960;6.250;2022-07-29T02:22:35;101519.47;;;18.26;52.18
39773;BME280;25451;51.960;6.250;2022-07-29T02:25:02;101560.88;;;18.44;52.13
39773;BME280;25451;51.960;6.250;2022-07-29T02:27:28;101574.84;;;18.49;52.16
39773;BME280;25451;51.960;6.250;2022-07-29T02:29:54;101567.84;;;18.51;52.09
39773;BME280;25451;51.960;6.250;2022-07-29T02:32:22;101564.78;;;18.53;52.14
39773;BME280;25451;51.960;6.250;2022-07-29T02:34:50;101563.09;;;18.52;52.10
39773;BME280;25451;51.960;6.250;2022-07-29T02:37:17;101549.69;;;18.54;52.14
39773;BME280;25451;51.960;6.250;2022-07-29T02:39:44;101558.34;;;18.57;51.99
39773;BME280;25451;51.960;6.250;2022-07-29T02:42:13;101557.22;;;18.58;52.20
39773;BME280;25451;51.960;6.250;2022-07-29T02:44:39;101565.63;;;18.58;52.15
39773;BME280;25451;51.960;6.250;2022-07-29T02:47:30;101582.13;;;18.60;52.15
39773;BME280;25451;51.960;6.250;2022-07-29T02:52:59;101576.22;;;18.61;52.10
39773;BME280;25451;51.960;6.250;2022-07-29T02:55:43;101579.88;;;18.62;52.16
39773;BME280;25451;51.960;6.250;2022-07-29T02:58:21;101572.63;;;18.61;52.18
39773;BME280;25451;51.960;6.250;2022-07-29T03:00:51;101573.72;;;18.60;52.40
39773;BME280;25451;51.960;6.250;2022-07-29T03:03:18;101567.56;;;18.58;52.59
39773;BME280;25451;51.960;6.250;2022-07-29T03:05:44;101558.66;;;18.51;52.87
39773;BME280;25451;51.960;6.250;2022-07-29T03:08:11;101567.88;;;18.56;52.94
39773;BME280;25451;51.960;6.250;2022-07-29T03:10:39;101575.41;;;18.56;52.83
39773;BME280;25451;51.960;6.250;2022-07-29T03:13:08;101568.16;;;18.55;52.74
39773;BME280;25451;51.960;6.250;2022-07-29T03:15:34;101548.56;;;18.50;52.84
39773;BME280;25451;51.960;6.250;2022-07-29T03:18:00;101555.28;;;18.54;53.01
39773;BME280;25451;51.960;6.250;2022-07-29T03:20:26;101541.84;;;18.46;53.11
39773;BME280;25451;51.960;6.250;2022-07-29T03:22:51;101545.78;;;18.50;53.17
39773;BME280;25451;51.960;6.250;2022-07-29T03:25:19;101543.81;;;18.45;53.07
39773;BME280;25451;51.960;6.250;2022-07-29T03:27:45;101544.59;;;18.41;53.23
39773;BME280;25451;51.960;6.250;2022-07-29T03:30:12;101532.88;;;18.39;53.29
39773;BME280;25451;51.960;6.250;2022-07-29T03:32:38;101541.25;;;18.39;53.51
39773;BME280;25451;51.960;6.250;2022-07-29T03:35:04;101535.13;;;18.32;53.71
39773;BME280;25451;51.960;6.250;2022-07-29T03:37:30;101529.50;;;18.27;53.80
39773;BME280;25451;51.960;6.250;2022-07-29T03:39:57;101518.63;;;18.20;53.99
39773;BME280;25451;51.960;6.250;2022-07-29T03:42:31;101500.44;;;18.12;54.12
39773;BME280;25451;51.960;6.250;2022-07-29T03:44:58;101494.31;;;18.05;54.27
39773;BME280;25451;51.960;6.250;2022-07-29T03:47:27;101493.72;;;17.93;54.52
39773;BME280;25451;51.960;6.250;2022-07-29T03:49:58;101497.88;;;17.86;54.79
39773;BME280;25451;51.960;6.250;2022-07-29T03:52:25;101499.31;;;17.83;54.75
39773;BME280;25451;51.960;6.250;2022-07-29T03:54:50;101494.25;;;17.75;55.01
39773;BME280;25451;51.960;6.250;2022-07-29T03:57:16;101488.09;;;17.63;55.37
39773;BME280;25451;51.960;6.250;2022-07-29T03:59:43;101495.03;;;17.56;55.73
39773;BME280;25451;51.960;6.250;2022-07-29T04:02:10;101503.06;;;17.47;56.04
39773;BME280;25451;51.960;6.250;2022-07-29T04:04:36;101501.97;;;17.48;56.15
39773;BME280;25451;51.960;6.250;2022-07-29T04:07:02;101488.53;;;17.40;56.53
39773;BME280;25451;51.960;6.250;2022-07-29T04:09:28;101488.50;;;17.30;57.02
39773;BME280;25451;51.960;6.250;2022-07-29T04:11:53;101490.16;;;17.31;57.10
39773;BME280;25451;51.960;6.250;2022-07-29T04:14:19;101484.84;;;17.29;57.14
39773;BME280;25451;51.960;6.250;2022-07-29T04:16:45;101471.72;;;17.20;57.52
39773;BME280;25451;51.960;6.250;2022-07-29T04:19:10;101466.63;;;17.07;58.07
39773;BME280;25451;51.960;6.250;2022-07-29T04:21:40;101468.22;;;16.93;58.52
39773;BME280;25451;51.960;6.250;2022-07-29T04:24:06;101487.41;;;16.84;58.75
39773;BME280;25451;51.960;6.250;2022-07-29T04:26:32;101489.91;;;16.76;58.86
39773;BME280;25451;51.960;6.250;2022-07-29T04:28:57;101506.66;;;16.81;58.93
39773;BME280;25451;51.960;6.250;2022-07-29T04:31:22;101490.75;;;16.81;58.93
39773;BME280;25451;51.960;6.250;2022-07-29T04:33:48;101485.78;;;16.88;59.07
39773;BME280;25451;51.960;6.250;2022-07-29T04:36:13;101482.72;;;16.90;59.25
39773;BME280;25451;51.960;6.250;2022-07-29T04:38:38;101466.53;;;16.87;59.56
39773;BME280;25451;51.960;6.250;2022-07-29T04:41:04;101452.25;;;16.78;59.76
39773;BME280;25451;51.960;6.250;2022-07-29T04:43:30;101473.75;;;16.83;60.03
39773;BME280;25451;51.960;6.250;2022-07-29T04:45:55;101468.97;;;16.78;60.39
39773;BME280;25451;51.960;6.250;2022-07-29T04:48:20;101472.56;;;16.74;60.23
39773;BME280;25451;51.960;6.250;2022-07-29T04:50:46;101478.72;;;16.71;60.43
39773;BME280;25451;51.960;6.250;2022-07-29T04:53:11;101485.66;;;16.68;60.48
39773;BME280;25451;51.960;6.250;2022-07-29T04:55:37;101483.66;;;16.64;60.67
39773;BME280;25451;51.960;6.250;2022-07-29T04:58:02;101489.25;;;16.64;60.79
39773;BME280;25451;51.960;6.250;2022-07-29T05:00:27;101485.31;;;16.59;60.74
39773;BME280;25451;51.960;6.250;2022-07-29T05:02:53;101496.78;;;16.63;60.80
39773;BME280;25451;51.960;6.250;2022-07-29T05:05:18;101501.50;;;16.63;60.84
39773;BME280;25451;51.960;6.250;2022-07-29T05:07:43;101503.19;;;16.64;60.83
39773;BME280;25451;51.960;6.250;2022-07-29T05:10:09;101507.09;;;16.63;60.66
39773;BME280;25451;51.960;6.250;2022-07-29T05:12:34;101531.09;;;16.69;60.67
39773;BME280;25451;51.960;6.250;2022-07-29T05:15:00;101542.25;;;16.69;60.68
39773;BME280;25451;51.960;6.250;2022-07-29T05:17:25;101550.97;;;16.77;60.77
39773;BME280;25451;51.960;6.250;2022-07-29T05:19:50;101554.03;;;16.81;60.68
39773;BME280;25451;51.960;6.250;2022-07-29T05:22:20;101552.41;;;16.85;60.55
39773;BME280;25451;51.960;6.250;2022-07-29T05:24:46;101567.50;;;16.89;60.72
39773;BME280;25451;51.960;6.250;2022-07-29T05:27:11;101569.47;;;16.93;60.52
39773;BME280;25451;51.960;6.250;2022-07-29T05:29:36;101549.97;;;16.93;60.48
39773;BME280;25451;51.960;6.250;2022-07-29T05:32:02;101542.13;;;16.90;60.43
39773;BME280;25451;51.960;6.250;2022-07-29T05:34:28;101545.81;;;17.01;60.54
39773;BME280;25451;51.960;6.250;2022-07-29T05:36:53;101548.03;;;16.99;60.44
39773;BME280;25451;51.960;6.250;2022-07-29T05:39:18;101555.56;;;16.98;60.54
39773;BME280;25451;51.960;6.250;2022-07-29T05:41:44;101530.72;;;16.92;60.42
39773;BME280;25451;51.960;6.250;2022-07-29T05:44:09;101546.66;;;17.01;60.63
39773;BME280;25451;51.960;6.250;2022-07-29T05:46:34;101536.84;;;16.94;60.76
39773;BME280;25451;51.960;6.250;2022-07-29T05:49:00;101537.44;;;17.01;60.83
39773;BME280;25451;51.960;6.250;2022-07-29T05:51:25;101535.22;;;16.98;60.93
39773;BME280;25451;51.960;6.250;2022-07-29T05:53:50;101533.50;;;16.92;60.91
39773;BME280;25451;51.960;6.250;2022-07-29T05:56:16;101533.50;;;16.97;60.92
39773;BME280;25451;51.960;6.250;2022-07-29T05:58:41;101537.44;;;16.96;61.02
39773;BME280;25451;51.960;6.250;2022-07-29T06:01:06;101534.63;;;16.96;61.07
39773;BME280;25451;51.960;6.250;2022-07-29T06:03:31;101535.44;;;16.91;61.11
39773;BME280;25451;51.960;6.250;2022-07-29T06:05:57;101542.16;;;16.95;61.31
39773;BME280;25451;51.960;6.250;2022-07-29T06:08:22;101532.09;;;16.94;61.15
39773;BME280;25451;51.960;6.250;2022-07-29T06:10:48;101527.66;;;16.93;61.33
39773;BME280;25451;51.960;6.250;2022-07-29T06:13:13;101518.97;;;16.90;61.24
39773;BME280;25451;51.960;6.250;2022-07-29T06:15:41;101525.13;;;16.92;61.31
39773;BME280;25451;51.960;6.250;2022-07-29T06:18:06;101528.16;;;16.90;61.31
39773;BME280;25451;51.960;6.250;2022-07-29T06:20:34;101515.63;;;16.88;61.30
39773;BME280;25451;51.960;6.250;2022-07-29T06:22:59;101504.44;;;16.83;61.39
39773;BME280;25451;51.960;6.250;2022-07-29T06:25:25;101518.41;;;16.88;61.52
39773;BME280;25451;51.960;6.250;2022-07-29T06:27:50;101516.72;;;16.87;61.60
39773;BME280;25451;51.960;6.250;2022-07-29T06:30:16;101521.78;;;16.90;61.66
39773;BME280;25451;51.960;6.250;2022-07-29T06:32:41;101523.72;;;16.94;61.73
39773;BME280;25451;51.960;6.250;2022-07-29T06:35:07;101520.13;;;16.94;61.54
39773;BME280;25451;51.960;6.250;2022-07-29T06:37:32;101522.66;;;17.00;61.66
39773;BME280;25451;51.960;6.250;2022-07-29T06:39:58;101527.97;;;17.02;61.51
39773;BME280;25451;51.960;6.250;2022-07-29T06:42:43;101521.28;;;17.03;61.63
39773;BME280;25451;51.960;6.250;2022-07-29T06:45:09;101526.91;;;17.08;61.56
39773;BME280;25451;51.960;6.250;2022-07-29T06:47:35;101506.81;;;17.11;61.56
39773;BME280;25451;51.960;6.250;2022-07-29T06:50:00;101516.31;;;17.15;62.02
39773;BME280;25451;51.960;6.250;2022-07-29T06:52:25;101529.75;;;17.18;61.63
39773;BME280;25451;51.960;6.250;2022-07-29T06:54:51;101527.50;;;17.20;61.72
39773;BME280;25451;51.960;6.250;2022-07-29T06:57:16;101519.69;;;17.17;61.89
39773;BME280;25451;51.960;6.250;2022-07-29T06:59:41;101528.09;;;17.22;61.84
39773;BME280;25451;51.960;6.250;2022-07-29T07:02:07;101534.22;;;17.24;61.75
39773;BME280;25451;51.960;6.250;2022-07-29T07:04:32;101531.72;;;17.27;61.70
39773;BME280;25451;51.960;6.250;2022-07-29T07:06:58;101533.16;;;17.30;61.80
39773;BME280;25451;51.960;6.250;2022-07-29T07:09:24;101541.53;;;17.35;61.82
39773;BME280;25451;51.960;6.250;2022-07-29T07:11:50;101531.22;;;17.35;61.82
39773;BME280;25451;51.960;6.250;2022-07-29T07:14:15;101534.59;;;17.42;61.79
39773;BME280;25451;51.960;6.250;2022-07-29T07:16:41;101529.84;;;17.43;61.73
39773;BME280;25451;51.960;6.250;2022-07-29T07:19:06;101536.34;;;17.54;61.67
39773;BME280;25451;51.960;6.250;2022-07-29T07:21:32;101541.09;;;17.58;61.58
39773;BME280;25451;51.960;6.250;2022-07-29T07:23:58;101522.38;;;17.54;61.67
39773;BME280;25451;51.960;6.250;2022-07-29T07:26:24;101525.44;;;17.52;61.69
39773;BME280;25451;51.960;6.250;2022-07-29T07:28:50;101533.84;;;17.62;61.69
39773;BME280;25451;51.960;6.250;2022-07-29T07:31:15;101531.91;;;17.63;61.56
39773;BME280;25451;51.960;6.250;2022-07-29T07:33:40;101528.84;;;17.64;61.65
39773;BME280;25451;51.960;6.250;2022-07-29T07:36:06;101524.38;;;17.63;61.78
39773;BME280;25451;51.960;6.250;2022-07-29T07:38:31;101529.69;;;17.65;61.55
39773;BME280;25451;51.960;6.250;2022-07-29T07:40:56;101522.72;;;17.67;61.40
39773;BME280;25451;51.960;6.250;2022-07-29T07:43:22;101539.50;;;17.77;61.49
39773;BME280;25451;51.960;6.250;2022-07-29T07:45:47;101537.28;;;17.79;61.57
39773;BME280;25451;51.960;6.250;2022-07-29T07:48:13;101537.00;;;17.81;61.44
39773;BME280;25451;51.960;6.250;2022-07-29T07:50:38;101550.38;;;17.84;61.44
39773;BME280;25451;51.960;6.250;2022-07-29T07:53:03;101548.44;;;17.84;61.43
39773;BME280;25451;51.960;6.250;2022-07-29T07:55:29;101560.47;;;17.90;61.52
39773;BME280;25451;51.960;6.250;2022-07-29T08:07:45;101567.75;;;18.01;61.26
39773;BME280;25451;51.960;6.250;2022-07-29T08:10:12;101566.91;;;18.00;61.26
39773;BME280;25451;51.960;6.250;2022-07-29T08:12:37;101570.56;;;18.01;61.13
39773;BME280;25451;51.960;6.250;2022-07-29T08:15:03;101571.41;;;18.01;61.15
39773;BME280;25451;51.960;6.250;2022-07-29T08:17:29;101573.06;;;18.02;61.05
39773;BME280;25451;51.960;6.250;2022-07-29T08:19:54;101571.13;;;18.03;61.04
39773;BME280;25451;51.960;6.250;2022-07-29T08:22:20;101559.09;;;18.02;61.08
39773;BME280;25451;51.960;6.250;2022-07-29T08:24:45;101587.34;;;18.06;60.90
39773;BME280;25451;51.960;6.250;2022-07-29T08:27:18;101561.31;;;18.00;61.07
39773;BME280;25451;51.960;6.250;2022-07-29T08:29:43;101578.41;;;18.09;60.91
39773;BME280;25451;51.960;6.250;2022-07-29T08:32:08;101587.63;;;18.09;60.97
39773;BME280;25451;51.960;6.250;2022-07-29T08:34:34;101586.25;;;18.12;61.03
39773;BME280;25451;51.960;6.250;2022-07-29T08:36:59;101580.38;;;18.13;61.05
39773;BME280;25451;51.960;6.250;2022-07-29T08:39:24;101575.88;;;18.12;61.14
39773;BME280;25451;51.960;6.250;2022-07-29T08:41:51;101582.06;;;18.19;61.08
39773;BME280;25451;51.960;6.250;2022-07-29T08:44:19;101577.00;;;18.16;61.13
39773;BME280;25451;51.960;6.250;2022-07-29T08:46:46;101591.00;;;18.27;61.08
39773;BME280;25451;51.960;6.250;2022-07-29T08:49:12;101582.59;;;18.27;61.08
39773;BME280;25451;51.960;6.250;2022-07-29T08:51:39;101586.53;;;18.31;61.03
39773;BME280;25451;51.960;6.250;2022-07-29T08:54:05;101583.19;;;18.34;61.10
39773;BME280;25451;51.960;6.250;2022-07-29T08:56:31;101572.28;;;18.27;60.91
39773;BME280;25451;51.960;6.250;2022-07-29T08:58:58;101579.25;;;18.35;61.32
39773;BME280;25451;51.960;6.250;2022-07-29T09:01:27;101584.84;;;18.35;61.19
39773;BME280;25451;51.960;6.250;2022-07-29T09:03:55;101580.41;;;18.34;61.15
39773;BME280;25451;51.960;6.250;2022-07-29T09:06:21;101564.19;;;18.26;61.15
39773;BME280;25451;51.960;6.250;2022-07-29T09:08:47;101586.28;;;18.32;61.17
39773;BME280;25451;51.960;6.250;2022-07-29T09:11:14;101598.25;;;18.33;61.26
39773;BME280;25451;51.960;6.250;2022-07-29T09:13:39;101599.97;;;18.34;61.22
39773;BME280;25451;51.960;6.250;2022-07-29T09:16:05;101598.25;;;18.33;61.05
39773;BME280;25451;51.960;6.250;2022-07-29T09:18:37;101602.19;;;18.32;60.98
39773;BME280;25451;51.960;6.250;2022-07-29T09:21:04;101602.47;;;18.30;61.09
39773;BME280;25451;51.960;6.250;2022-07-29T09:26:34;101603.88;;;18.28;61.27
39773;BME280;25451;51.960;6.250;2022-07-29T09:29:08;101590.19;;;18.26;61.29
39773;BME280;25451;51.960;6.250;2022-07-29T09:31:35;101584.28;;;18.17;61.32
39773;BME280;25451;51.960;6.250;2022-07-29T09:34:01;101613.91;;;18.23;61.41
39773;BME280;25451;51.960;6.250;2022-07-29T09:36:26;101598.25;;;18.17;61.25
39773;BME280;25451;51.960;6.250;2022-07-29T09:38:59;101609.75;;;18.26;61.22
39773;BME280;25451;51.960;6.250;2022-07-29T09:41:29;101620.91;;;18.31;61.46
39773;BME280;25451;51.960;6.250;2022-07-29T09:43:59;101615.03;;;18.33;61.32
39773;BME280;25451;51.960;6.250;2022-07-29T09:46:25;101607.22;;;18.35;61.46
39773;BME280;25451;51.960;6.250;2022-07-29T09:49:11;101617.56;;;18.39;61.47
39773;BME280;25451;51.960;6.250;2022-07-29T09:51:38;101589.03;;;18.27;61.31
39773;BME280;25451;51.960;6.250;2022-07-29T09:54:23;101614.00;;;18.54;61.03
39773;BME280;25451;51.960;6.250;2022-07-29T09:56:48;101602.53;;;18.55;60.92
39773;BME280;25451;51.960;6.250;2022-07-29T09:59:14;101610.09;;;18.65;60.77
39773;BME280;25451;51.960;6.250;2022-07-29T10:01:39;101596.66;;;18.67;60.67
39773;BME280;25451;51.960;6.250;2022-07-29T10:04:05;101587.72;;;18.75;60.67
39773;BME280;25451;51.960;6.250;2022-07-29T10:06:30;101603.94;;;18.93;60.66
39773;BME280;25451;51.960;6.250;2022-07-29T10:09:07;101600.28;;;19.02;60.32
39773;BME280;25451;51.960;6.250;2022-07-29T10:11:33;101599.41;;;19.12;60.36
39773;BME280;25451;51.960;6.250;2022-07-29T10:13:58;101593.22;;;19.20;60.01
39773;BME280;25451;51.960;6.250;2022-07-29T10:16:26;101598.28;;;19.33;59.94
39773;BME280;25451;51.960;6.250;2022-07-29T10:19:00;101590.41;;;19.45;59.83
39773;BME280;25451;51.960;6.250;2022-07-29T10:21:26;101594.81;;;19.61;59.69
39773;BME280;25451;51.960;6.250;2022-07-29T10:23:52;101586.06;;;19.78;59.32
39773;BME280;25451;51.960;6.250;2022-07-29T10:26:19;101580.66;;;19.92;59.20
39773;BME280;25451;51.960;6.250;2022-07-29T10:28:44;101580.00;;;20.10;58.92
39773;BME280;25451;51.960;6.250;2022-07-29T10:31:18;101580.19;;;20.28;58.65
39773;BME280;25451;51.960;6.250;2022-07-29T10:36:49;101581.88;;;20.63;57.66
39773;BME280;25451;51.960;6.250;2022-07-29T10:39:33;101578.19;;;20.73;57.48
39773;BME280;25451;51.960;6.250;2022-07-29T10:42:14;101574.97;;;20.84;57.10
39773;BME280;25451;51.960;6.250;2022-07-29T10:44:42;101582.75;;;20.92;56.94
39773;BME280;25451;51.960;6.250;2022-07-29T10:47:19;101572.53;;;21.06;56.67
39773;BME280;25451;51.960;6.250;2022-07-29T10:50:06;101577.16;;;21.21;56.40
39773;BME280;25451;51.960;6.250;2022-07-29T10:53:03;101581.16;;;21.38;56.04
39773;BME280;25451;51.960;6.250;2022-07-29T10:55:39;101574.84;;;21.52;55.64
39773;BME280;25451;51.960;6.250;2022-07-29T10:58:25;101568.78;;;21.63;55.24
39773;BME280;25451;51.960;6.250;2022-07-29T11:00:52;101580.66;;;21.79;55.06
39773;BME280;25451;51.960;6.250;2022-07-29T11:03:46;101579.38;;;21.95;54.75
39773;BME280;25451;51.960;6.250;2022-07-29T11:06:13;101570.81;;;22.05;54.48
39773;BME280;25451;51.960;6.250;2022-07-29T11:08:38;101570.66;;;22.15;54.11
39773;BME280;25451;51.960;6.250;2022-07-29T11:16:14;101574.44;;;22.43;53.06
39773;BME280;25451;51.960;6.250;2022-07-29T11:21:41;101570.19;;;22.64;52.81
39773;BME280;25451;51.960;6.250;2022-07-29T11:24:19;101573.56;;;22.79;52.72
39773;BME280;25451;51.960;6.250;2022-07-29T11:27:26;101571.00;;;22.96;52.49
39773;BME280;25451;51.960;6.250;2022-07-29T11:29:54;101577.72;;;23.14;52.12
39773;BME280;25451;51.960;6.250;2022-07-29T11:32:21;101579.94;;;23.31;51.92
39773;BME280;25451;51.960;6.250;2022-07-29T11:34:48;101571.84;;;23.43;51.46
39773;BME280;25451;51.960;6.250;2022-07-29T11:37:17;101573.72;;;23.61;51.35
39773;BME280;25451;51.960;6.250;2022-07-29T11:44:58;101577.56;;;24.06;50.76
39773;BME280;25451;51.960;6.250;2022-07-29T11:47:25;101566.22;;;24.19;50.63
39773;BME280;25451;51.960;6.250;2022-07-29T11:49:51;101567.66;;;24.30;50.13
39773;BME280;25451;51.960;6.250;2022-07-29T11:52:18;101566.91;;;24.38;49.92
39773;BME280;25451;51.960;6.250;2022-07-29T11:54:44;101561.97;;;24.44;49.97
39773;BME280;25451;51.960;6.250;2022-07-29T11:57:12;101557.56;;;24.51;49.71
39773;BME280;25451;51.960;6.250;2022-07-29T11:59:41;101562.28;;;24.64;49.27
39773;BME280;25451;51.960;6.250;2022-07-29T12:02:08;101555.34;;;24.70;49.18
39773;BME280;25451;51.960;6.250;2022-07-29T12:04:34;101564.03;;;24.74;48.83
39773;BME280;25451;51.960;6.250;2022-07-29T12:07:12;101572.06;;;24.81;48.67
39773;BME280;25451;51.960;6.250;2022-07-29T12:09:38;101571.94;;;24.86;48.87
39773;BME280;25451;51.960;6.250;2022-07-29T12:12:03;101566.16;;;24.91;48.54
39773;BME280;25451;51.960;6.250;2022-07-29T12:14:30;101549.22;;;24.91;48.52
39773;BME280;25451;51.960;6.250;2022-07-29T12:16:56;101565.59;;;25.02;48.55
39773;BME280;25451;51.960;6.250;2022-07-29T12:19:21;101559.44;;;25.09;48.04
39773;BME280;25451;51.960;6.250;2022-07-29T12:21:49;101558.66;;;25.17;48.17
39773;BME280;25451;51.960;6.250;2022-07-29T12:24:16;101555.38;;;25.23;48.04
39773;BME280;25451;51.960;6.250;2022-07-29T12:26:54;101554.91;;;25.30;47.71
39773;BME280;25451;51.960;6.250;2022-07-29T12:29:19;101554.28;;;25.33;47.62
39773;BME280;25451;51.960;6.250;2022-07-29T12:31:45;101552.97;;;25.39;47.53
39773;BME280;25451;51.960;6.250;2022-07-29T12:34:13;101555.66;;;25.44;47.47
39773;BME280;25451;51.960;6.250;2022-07-29T12:36:41;101552.69;;;25.49;47.28
39773;BME280;25451;51.960;6.250;2022-07-29T12:39:07;101541.41;;;25.49;47.43
39773;BME280;25451;51.960;6.250;2022-07-29T12:41:34;101558.56;;;25.61;47.40
39773;BME280;25451;51.960;6.250;2022-07-29T12:44:00;101553.59;;;25.67;47.04
39773;BME280;25451;51.960;6.250;2022-07-29T12:46:25;101553.91;;;25.65;46.69
39773;BME280;25451;51.960;6.250;2022-07-29T12:48:53;101566.75;;;25.71;46.82
39773;BME280;25451;51.960;6.250;2022-07-29T12:51:33;101563.59;;;25.73;46.63
39773;BME280;25451;51.960;6.250;2022-07-29T12:54:12;101563.75;;;25.76;46.36
39773;BME280;25451;51.960;6.250;2022-07-29T12:56:39;101557.09;;;25.81;46.23
39773;BME280;25451;51.960;6.250;2022-07-29T12:59:21;101553.81;;;25.87;46.11
39773;BME280;25451;51.960;6.250;2022-07-29T13:01:49;101562.13;;;25.92;45.96
39773;BME280;25451;51.960;6.250;2022-07-29T13:04:44;101561.47;;;25.95;45.53
39773;BME280;25451;51.960;6.250;2022-07-29T13:07:24;101547.16;;;25.92;45.45
39773;BME280;25451;51.960;6.250;2022-07-29T13:09:50;101560.00;;;25.98;45.10
39773;BME280;25451;51.960;6.250;2022-07-29T13:12:15;101551.66;;;25.93;45.09
39773;BME280;25451;51.960;6.250;2022-07-29T13:14:45;101561.97;;;25.97;44.38
39773;BME280;25451;51.960;6.250;2022-07-29T13:17:18;101554.97;;;25.95;44.48
39773;BME280;25451;51.960;6.250;2022-07-29T13:19:50;101555.81;;;25.95;43.93
39773;BME280;25451;51.960;6.250;2022-07-29T13:22:19;101556.16;;;25.94;43.81
39773;BME280;25451;51.960;6.250;2022-07-29T13:24:52;101546.16;;;25.96;43.59
39773;BME280;25451;51.960;6.250;2022-07-29T13:27:19;101555.13;;;25.98;43.35
39773;BME280;25451;51.960;6.250;2022-07-29T13:29:46;101567.97;;;26.04;43.27
39773;BME280;25451;51.960;6.250;2022-07-29T13:32:12;101562.97;;;26.01;43.05
39773;BME280;25451;51.960;6.250;2022-07-29T13:34:39;101546.34;;;26.00;43.01
39773;BME280;25451;51.960;6.250;2022-07-29T13:37:04;101554.50;;;26.01;43.08
39773;BME280;25451;51.960;6.250;2022-07-29T13:39:30;101553.31;;;26.02;43.00
39773;BME280;25451;51.960;6.250;2022-07-29T13:41:55;101555.03;;;26.12;42.68